createdAt,value
2023-05-09T05:51:53.027Z,9.60
2023-05-09T05:54:23.017Z,6.80
2023-05-09T05:56:51.117Z,6.10
2023-05-09T05:59:18.918Z,7.50
2023-05-09T06:01:46.738Z,7.40
2023-05-09T06:04:14.865Z,6.90
2023-05-09T06:06:43.422Z,7.30
2023-05-09T06:09:11.667Z,6.40
2023-05-09T06:11:39.497Z,6.30
2023-05-09T06:14:07.393Z,6.70
2023-05-09T06:16:35.515Z,6.40
2023-05-09T06:19:03.588Z,5.40
2023-05-09T06:21:31.418Z,6.20
2023-05-09T06:24:08.467Z,6.60
2023-05-09T06:26:40.209Z,6.90
2023-05-09T06:29:08.331Z,7.10
2023-05-09T06:31:38.753Z,6.40
2023-05-09T06:34:07.537Z,7.20
2023-05-09T06:36:35.509Z,6.70
2023-05-09T06:39:03.313Z,6.90
2023-05-09T06:41:31.056Z,6.00
2023-05-09T06:43:58.827Z,7.30
2023-05-09T06:46:26.798Z,6.50
2023-05-09T06:48:54.612Z,5.80
2023-05-09T06:51:22.726Z,7.20
2023-05-09T06:53:51.183Z,5.70
2023-05-09T06:56:23.097Z,6.10
2023-05-09T06:58:51.251Z,7.00
2023-05-09T07:01:19.203Z,5.30
2023-05-09T07:03:47.695Z,5.10
2023-05-09T07:06:15.995Z,5.00
2023-05-09T07:08:43.910Z,6.00
2023-05-09T07:11:11.864Z,4.70
2023-05-09T07:13:39.997Z,5.70
2023-05-09T07:16:08.059Z,5.60
2023-05-09T07:18:36.165Z,5.70
2023-05-09T07:21:04.172Z,5.50
2023-05-09T07:23:32.139Z,7.00
2023-05-09T07:26:00.052Z,7.20
2023-05-09T07:28:27.914Z,6.10
2023-05-09T07:30:56.356Z,7.00
2023-05-09T07:33:24.270Z,5.70
2023-05-09T07:35:53.115Z,5.70
2023-05-09T07:38:20.953Z,5.60
2023-05-09T07:40:48.880Z,6.80
2023-05-09T07:43:16.963Z,5.40
2023-05-09T07:45:45.276Z,6.40
2023-05-09T07:48:13.514Z,6.60
2023-05-09T07:50:42.147Z,6.90
2023-05-09T07:53:10.035Z,8.00
2023-05-09T07:55:38.318Z,6.20
2023-05-09T07:58:06.466Z,4.00
2023-05-09T08:00:34.575Z,6.70
2023-05-09T08:03:02.773Z,5.40
2023-05-09T08:05:31.052Z,6.90
2023-05-09T08:07:59.549Z,5.60
2023-05-09T08:10:30.727Z,5.60
2023-05-09T08:12:58.828Z,8.00
2023-05-09T08:15:27.458Z,6.40
2023-05-09T08:17:55.738Z,5.50
2023-05-09T08:20:24.405Z,4.40
2023-05-09T08:22:52.256Z,5.70
2023-05-09T08:25:20.872Z,6.80
2023-05-09T08:27:49.490Z,5.90
2023-05-09T08:30:18.556Z,5.90
2023-05-09T08:32:46.577Z,5.70
2023-05-09T08:35:14.800Z,5.80
2023-05-09T08:37:42.852Z,6.20
2023-05-09T08:40:11.102Z,7.10
2023-05-09T08:42:40.236Z,6.00
2023-05-09T08:45:15.206Z,5.50
2023-05-09T08:47:43.243Z,6.80
2023-05-09T08:50:12.144Z,7.70
2023-05-09T08:52:40.186Z,4.90
2023-05-09T08:55:08.410Z,5.70
2023-05-09T08:57:36.290Z,4.60
2023-05-09T09:00:06.541Z,5.40
2023-05-09T09:02:34.633Z,7.40
2023-05-09T09:05:03.100Z,6.90
2023-05-09T09:07:31.417Z,6.80
2023-05-09T09:09:59.406Z,5.30
2023-05-09T09:12:27.163Z,5.40
2023-05-09T09:14:58.182Z,4.90
2023-05-09T09:17:29.750Z,7.20
2023-05-09T09:20:01.116Z,4.60
2023-05-09T09:22:33.901Z,7.20
2023-05-09T09:25:02.238Z,5.60
2023-05-09T09:27:30.183Z,5.40
2023-05-09T09:30:18.963Z,6.10
2023-05-09T09:32:46.831Z,5.70
2023-05-09T09:35:14.697Z,7.30
2023-05-09T09:37:45.082Z,5.50
2023-05-09T09:40:14.429Z,4.10
2023-05-09T09:42:47.783Z,6.60
2023-05-09T09:45:17.187Z,7.00
2023-05-09T09:47:47.115Z,4.80
2023-05-09T09:50:20.400Z,9.40
2023-05-09T09:52:52.869Z,5.40
2023-05-09T09:55:21.198Z,5.40
2023-05-09T09:57:49.130Z,5.70
2023-05-09T10:00:26.145Z,4.90
2023-05-09T10:02:56.924Z,7.20
2023-05-09T10:05:26.177Z,5.40
2023-05-09T10:07:56.696Z,5.30
2023-05-09T10:10:33.584Z,4.90
2023-05-09T10:13:10.741Z,5.20
2023-05-09T10:15:52.359Z,6.90
2023-05-09T10:18:28.480Z,7.20
2023-05-09T10:21:01.204Z,7.00
2023-05-09T10:23:30.994Z,4.80
2023-05-09T10:26:27.832Z,5.50
2023-05-09T10:28:56.325Z,5.80
2023-05-09T10:31:28.547Z,7.60
2023-05-09T10:33:56.660Z,5.10
2023-05-09T10:36:25.181Z,5.50
2023-05-09T10:38:54.799Z,5.50
2023-05-09T10:41:23.890Z,5.40
2023-05-09T10:43:52.055Z,5.00
2023-05-09T10:46:20.007Z,5.00
2023-05-09T10:48:48.294Z,5.70
2023-05-09T10:51:16.439Z,6.50
2023-05-09T10:53:46.736Z,5.40
2023-05-09T10:56:35.702Z,6.00
2023-05-09T10:59:04.133Z,4.70
2023-05-09T11:01:39.017Z,6.50
2023-05-09T11:04:11.663Z,5.30
2023-05-09T11:06:51.782Z,5.20
2023-05-09T11:09:38.826Z,5.50
2023-05-09T11:12:14.528Z,5.10
2023-05-09T11:14:45.071Z,5.80
2023-05-09T11:17:26.777Z,5.50
2023-05-09T11:20:05.961Z,9.30
2023-05-09T11:22:44.695Z,5.40
2023-05-09T11:25:14.654Z,6.10
2023-05-09T11:27:48.662Z,8.80
2023-05-09T11:30:20.191Z,5.00
2023-05-09T11:32:55.551Z,5.20
2023-05-09T11:35:23.984Z,5.50
2023-05-09T11:38:06.047Z,5.40
2023-05-09T11:40:34.962Z,4.50
2023-05-09T11:43:02.873Z,5.10
2023-05-09T11:45:32.913Z,6.30
2023-05-09T11:48:01.459Z,4.40
2023-05-09T11:50:29.506Z,4.70
2023-05-09T11:52:57.531Z,5.80
2023-05-09T11:55:25.966Z,5.90
2023-05-09T11:57:54.411Z,4.90
2023-05-09T12:00:24.321Z,4.10
2023-05-09T12:02:53.558Z,5.70
2023-05-09T12:05:23.214Z,5.00
2023-05-09T12:07:52.592Z,4.50
2023-05-09T12:10:22.944Z,4.70
2023-05-09T12:12:53.218Z,5.00
2023-05-09T12:15:22.195Z,4.30
2023-05-09T12:18:04.456Z,4.80
2023-05-09T12:20:46.416Z,4.60
2023-05-09T12:23:14.951Z,5.50
2023-05-09T12:25:53.393Z,4.00
2023-05-09T12:28:23.009Z,5.80
2023-05-09T12:30:51.816Z,6.10
2023-05-09T12:33:20.056Z,5.00
2023-05-09T12:35:49.116Z,3.70
2023-05-09T12:38:23.623Z,3.70
2023-05-09T12:41:05.427Z,4.60
2023-05-09T12:43:39.530Z,4.60
2023-05-09T12:46:08.771Z,4.50
2023-05-09T12:48:39.879Z,4.60
2023-05-09T12:51:08.249Z,5.50
2023-05-09T12:53:41.069Z,5.00
2023-05-09T12:56:17.232Z,4.30
2023-05-09T12:58:52.696Z,4.50
2023-05-09T13:01:27.823Z,5.70
2023-05-09T13:04:06.389Z,4.80
2023-05-09T13:06:34.876Z,5.60
2023-05-09T13:09:06.108Z,4.50
2023-05-09T13:11:34.425Z,4.90
2023-05-09T13:14:04.201Z,5.00
2023-05-09T13:16:32.156Z,4.30
2023-05-09T13:19:01.812Z,7.60
2023-05-09T13:21:29.850Z,3.80
2023-05-09T13:23:57.605Z,4.30
2023-05-09T13:26:26.013Z,6.20
2023-05-09T13:28:53.933Z,6.00
2023-05-09T13:31:22.776Z,4.90
2023-05-09T13:33:51.904Z,4.20
2023-05-09T13:36:20.326Z,4.80
2023-05-09T13:38:48.142Z,6.30
2023-05-09T13:41:20.510Z,4.50
2023-05-09T13:43:48.634Z,5.80
2023-05-09T13:46:16.444Z,5.50
2023-05-09T13:48:44.799Z,5.60
2023-05-09T13:51:12.763Z,7.80
2023-05-09T13:53:40.686Z,5.40
2023-05-09T13:56:09.845Z,6.90
2023-05-09T13:58:37.902Z,5.80
2023-05-09T14:01:05.977Z,5.10
2023-05-09T14:03:34.032Z,4.80
2023-05-09T14:06:01.891Z,5.60
2023-05-09T14:08:29.793Z,4.70
2023-05-09T14:10:57.837Z,7.70
2023-05-09T14:13:25.744Z,4.20
2023-05-09T14:15:53.861Z,4.90
2023-05-09T14:18:21.768Z,6.50
2023-05-09T14:20:49.613Z,5.50
2023-05-09T14:23:17.328Z,5.60
2023-05-09T14:25:45.275Z,4.00
2023-05-09T14:28:13.090Z,4.50
2023-05-09T14:30:41.161Z,5.40
2023-05-09T14:33:09.277Z,25.40
2023-05-09T14:35:39.655Z,23.40
2023-05-09T14:38:08.979Z,10.30
2023-05-09T14:40:37.112Z,7.00
2023-05-09T14:43:06.032Z,6.00
2023-05-09T14:45:34.080Z,5.90
2023-05-09T14:48:05.904Z,5.40
2023-05-09T14:50:33.766Z,5.60
2023-05-09T14:53:02.166Z,5.10
2023-05-09T14:55:31.250Z,4.90
2023-05-09T14:57:59.585Z,4.90
2023-05-09T15:00:28.631Z,6.20
2023-05-09T15:02:57.158Z,4.30
2023-05-09T15:05:25.280Z,5.10
2023-05-09T15:07:53.207Z,5.90
2023-05-09T15:10:21.463Z,5.70
2023-05-09T15:12:49.727Z,5.60
2023-05-09T15:15:20.092Z,5.50
2023-05-09T15:17:48.134Z,5.40
2023-05-09T15:20:18.428Z,5.10
2023-05-09T15:22:47.575Z,3.50
2023-05-09T15:25:16.434Z,5.00
2023-05-09T15:27:44.414Z,4.50
2023-05-09T15:30:13.172Z,6.20
2023-05-09T15:32:41.218Z,4.80
2023-05-09T15:35:14.407Z,4.90
2023-05-09T15:37:44.684Z,4.60
2023-05-09T15:40:13.643Z,5.70
2023-05-09T15:42:42.488Z,8.10
2023-05-09T15:45:10.643Z,5.30
2023-05-09T15:47:38.631Z,5.10
2023-05-09T15:50:08.032Z,5.90
2023-05-09T15:52:36.769Z,5.60
2023-05-09T15:55:05.726Z,5.80
2023-05-09T15:57:33.512Z,5.60
2023-05-09T16:00:01.350Z,9.00
2023-05-09T16:02:29.592Z,4.80
2023-05-09T16:04:57.467Z,5.20
2023-05-09T16:07:26.184Z,5.70
2023-05-09T16:09:54.218Z,6.00
2023-05-09T16:12:22.154Z,6.80
2023-05-09T16:14:50.029Z,5.70
2023-05-09T16:17:17.916Z,6.70
2023-05-09T16:19:45.977Z,5.60
2023-05-09T16:22:14.135Z,7.30
2023-05-09T16:24:41.971Z,6.40
2023-05-09T16:27:09.900Z,6.10
2023-05-09T16:29:37.675Z,6.70
2023-05-09T16:32:07.778Z,7.00
2023-05-09T16:34:36.281Z,6.80
2023-05-09T16:37:04.115Z,6.60
2023-05-09T16:39:32.448Z,5.90
2023-05-09T16:42:00.279Z,7.10
2023-05-09T16:44:28.432Z,7.60
2023-05-09T16:46:56.312Z,7.90
2023-05-09T16:52:43.479Z,6.70
2023-05-09T16:55:11.247Z,7.60
2023-05-09T16:57:39.064Z,8.80
2023-05-09T17:00:09.899Z,7.40
2023-05-09T17:02:37.770Z,6.60
2023-05-09T17:05:06.784Z,6.90
2023-05-09T17:07:34.645Z,7.30
2023-05-09T17:10:02.794Z,5.80
2023-05-09T17:12:30.841Z,5.90
2023-05-09T17:14:58.624Z,6.20
2023-05-09T17:17:26.520Z,6.60
2023-05-09T17:19:54.593Z,6.30
2023-05-09T17:22:23.369Z,8.10
2023-05-09T17:24:51.449Z,7.80
2023-05-09T17:27:19.244Z,7.70
2023-05-09T17:29:47.539Z,6.20
2023-05-09T17:32:16.372Z,8.00
2023-05-09T17:34:44.167Z,6.20
2023-05-09T17:37:12.606Z,7.10
2023-05-09T17:39:42.357Z,8.70
2023-05-09T17:42:12.204Z,7.10
2023-05-09T17:44:43.035Z,8.90
2023-05-09T17:47:14.104Z,7.30
2023-05-09T17:49:42.160Z,6.90
2023-05-09T17:52:10.066Z,7.40
2023-05-09T17:54:37.984Z,6.40
2023-05-09T17:57:06.051Z,7.10
2023-05-09T17:59:33.867Z,7.80
2023-05-09T18:02:01.848Z,7.40
2023-05-09T18:04:31.728Z,8.40
2023-05-09T18:07:00.155Z,9.80
2023-05-09T18:09:28.230Z,7.40
2023-05-09T18:11:56.035Z,8.90
2023-05-09T18:14:23.939Z,6.60
2023-05-09T18:16:51.721Z,8.20
2023-05-09T18:19:19.758Z,8.50
2023-05-09T18:21:47.528Z,7.50
2023-05-09T18:24:17.051Z,7.90
2023-05-09T18:26:45.060Z,7.00
2023-05-09T18:29:13.227Z,9.90
2023-05-09T18:31:41.955Z,7.90
2023-05-09T18:34:09.864Z,7.00
2023-05-09T18:36:37.681Z,7.80
2023-05-09T18:39:05.704Z,7.00
2023-05-09T18:41:34.306Z,7.80
2023-05-09T18:44:02.072Z,8.40
2023-05-09T18:46:31.946Z,9.10
2023-05-09T18:49:00.056Z,8.80
2023-05-09T18:51:27.914Z,9.70
2023-05-09T18:53:56.704Z,8.40
2023-05-09T18:56:25.701Z,12.70
2023-05-09T18:58:53.626Z,9.80
2023-05-09T19:01:21.958Z,9.20
2023-05-09T19:03:54.157Z,9.70
2023-05-09T19:06:22.236Z,9.50
2023-05-09T19:08:50.109Z,8.00
2023-05-09T19:11:18.019Z,8.80
2023-05-09T19:13:48.861Z,10.00
2023-05-09T19:16:18.913Z,7.40
2023-05-09T19:18:47.422Z,9.80
2023-05-09T19:21:15.942Z,8.70
2023-05-09T19:23:49.303Z,9.70
2023-05-09T19:26:18.175Z,10.00
2023-05-09T19:28:47.202Z,11.60
2023-05-09T19:31:15.563Z,12.40
2023-05-09T19:33:45.767Z,13.30
2023-05-09T19:36:14.088Z,12.30
2023-05-09T19:38:41.896Z,14.90
2023-05-09T19:41:10.945Z,12.80
2023-05-09T19:43:38.744Z,13.60
2023-05-09T19:46:06.546Z,13.80
2023-05-09T19:48:35.953Z,11.90
2023-05-09T19:51:04.414Z,15.70
2023-05-09T19:53:32.286Z,13.40
2023-05-09T19:56:00.148Z,14.10
2023-05-09T19:58:28.123Z,14.20
2023-05-09T20:00:56.100Z,12.40
2023-05-09T20:03:24.076Z,10.10
2023-05-09T20:05:57.862Z,11.10
2023-05-09T20:08:26.026Z,11.60
2023-05-09T20:10:54.249Z,12.80
2023-05-09T20:13:22.245Z,13.70
2023-05-09T20:15:50.251Z,15.80
2023-05-09T20:18:18.634Z,18.90
2023-05-09T20:20:46.359Z,21.70
2023-05-09T20:23:14.223Z,20.50
2023-05-09T20:25:42.217Z,13.30
2023-05-09T20:28:12.249Z,12.80
2023-05-09T20:30:40.174Z,13.10
2023-05-09T20:33:08.043Z,9.90
2023-05-09T20:35:35.850Z,10.00
2023-05-09T20:38:04.663Z,8.70
2023-05-09T20:40:32.552Z,8.80
2023-05-09T20:43:00.405Z,10.50
2023-05-09T20:45:28.738Z,8.80
2023-05-09T20:47:56.820Z,8.90
2023-05-09T20:50:24.735Z,7.90
2023-05-09T20:52:52.575Z,9.20
2023-05-09T20:55:20.743Z,11.10
2023-05-09T20:57:48.513Z,9.20
2023-05-09T21:00:16.789Z,10.20
2023-05-09T21:02:44.929Z,10.60
2023-05-09T21:05:12.724Z,9.50
2023-05-09T21:07:40.673Z,8.50
2023-05-09T21:10:10.372Z,8.80
2023-05-09T21:12:38.340Z,8.00
2023-05-09T21:15:07.693Z,9.20
2023-05-09T21:17:35.614Z,8.40
2023-05-09T21:20:03.827Z,7.60
2023-05-09T21:22:31.590Z,11.10
2023-05-09T21:24:59.452Z,7.70
2023-05-09T21:27:29.890Z,6.50
2023-05-09T21:29:58.246Z,8.20
2023-05-09T21:32:26.144Z,8.20
2023-05-09T21:34:54.260Z,7.10
2023-05-09T21:37:22.126Z,7.50
2023-05-09T21:39:50.096Z,7.10
2023-05-09T21:42:17.957Z,8.70
2023-05-09T21:44:45.776Z,8.60
2023-05-09T21:47:13.805Z,7.10
2023-05-09T21:49:41.749Z,8.00
2023-05-09T21:52:09.498Z,7.80
2023-05-09T21:54:37.336Z,7.90
2023-05-09T21:57:05.594Z,9.90
2023-05-09T21:59:33.366Z,9.00
2023-05-09T22:02:01.402Z,7.90
2023-05-09T22:04:29.312Z,7.10
2023-05-09T22:06:57.104Z,7.00
2023-05-09T22:09:24.932Z,7.80
2023-05-09T22:11:53.105Z,7.60
2023-05-09T22:14:21.069Z,10.20
2023-05-09T22:16:48.852Z,8.50
2023-05-09T22:19:17.407Z,7.30
2023-05-09T22:21:45.268Z,7.90
2023-05-09T22:24:13.048Z,9.50
2023-05-09T22:26:40.866Z,7.80
2023-05-09T22:29:08.631Z,9.10
2023-05-09T22:31:36.495Z,7.30
2023-05-09T22:34:04.247Z,8.00
2023-05-09T22:36:32.196Z,9.50
2023-05-09T22:39:00.030Z,7.50
2023-05-09T22:41:27.880Z,9.90
2023-05-09T22:43:56.171Z,9.90
2023-05-09T22:46:24.117Z,7.30
2023-05-09T22:48:52.158Z,9.70
2023-05-09T22:51:20.010Z,7.50
2023-05-09T22:53:47.854Z,13.10
2023-05-09T22:56:16.348Z,9.70
2023-05-09T22:58:44.475Z,8.00
2023-05-09T23:01:12.468Z,7.00
2023-05-09T23:03:40.655Z,9.50
2023-05-09T23:06:08.544Z,8.90
2023-05-09T23:08:36.458Z,8.00
2023-05-09T23:11:04.868Z,10.30
2023-05-09T23:13:32.729Z,7.60
2023-05-09T23:16:00.501Z,8.00
2023-05-09T23:18:28.749Z,9.90
2023-05-09T23:20:56.624Z,7.20
2023-05-09T23:23:24.458Z,8.40
2023-05-09T23:25:52.557Z,8.00
2023-05-09T23:28:25.273Z,8.70
2023-05-09T23:30:54.101Z,9.50
2023-05-09T23:33:21.985Z,8.20
2023-05-09T23:35:50.054Z,8.70
2023-05-09T23:38:18.149Z,9.60
2023-05-09T23:40:46.239Z,9.00
2023-05-09T23:43:14.201Z,8.20
2023-05-09T23:45:42.753Z,7.40
2023-05-09T23:48:11.226Z,8.70
2023-05-09T23:50:39.451Z,9.50
2023-05-09T23:53:07.397Z,9.10
2023-05-09T23:55:35.274Z,7.50
2023-05-09T23:58:03.340Z,7.90
